Time;durP1;ratioP1;P1;durP2;ratioP2;P2;SDS_P1;SDS_P2;PMS_P1;PMS_P2;Temp;Humidity;BMP_temperature;BMP_pressure;BME280_temperature;BME280_humidity;BME280_pressure;Samples;Min_cycle;Max_cycle;Signal;HPM_P1;HPM_P2
2022/12/28 00:01:24;;;;;;;12.63;4.10;;;5.70;99.90;;;;;;5021140;28;20107;-86
2022/12/28 00:03:51;;;;;;;9.55;3.88;;;6.00;99.90;;;;;;5004817;28;20037;-86
2022/12/28 00:06:19;;;;;;;9.85;4.00;;;6.80;99.90;;;;;;5021220;28;20114;-86
2022/12/28 00:08:45;;;;;;;12.13;4.00;;;5.60;99.90;;;;;;5020304;28;20127;-86
2022/12/28 00:11:17;;;;;;;13.82;3.97;;;6.20;99.90;;;;;;5022541;28;20084;-86
2022/12/28 00:13:44;;;;;;;11.27;4.22;;;5.60;99.90;;;;;;5004718;28;20096;-86
2022/12/28 00:16:17;;;;;;;10.45;3.92;;;5.60;99.90;;;;;;5022238;28;20125;-85
2022/12/28 00:18:43;;;;;;;13.57;4.38;;;6.00;99.90;;;;;;5038572;28;20116;-85
2022/12/28 00:21:09;;;;;;;10.63;4.63;;;6.60;99.90;;;;;;5005252;28;20516;-85
2022/12/28 00:23:35;;;;;;;11.90;4.20;;;7.00;99.90;;;;;;5021267;28;20041;-85
2022/12/28 00:26:08;;;;;;;12.15;4.38;;;6.40;99.90;;;;;;5021936;28;20099;-85
2022/12/28 00:28:34;;;;;;;11.20;4.22;;;5.70;99.90;;;;;;4989910;28;20457;-85
2022/12/28 00:31:00;;;;;;;12.05;4.22;;;6.10;99.90;;;;;;5033407;28;20040;-86
2022/12/28 00:33:25;;;;;;;11.68;4.15;;;6.60;99.90;;;;;;5023561;28;20039;-86
2022/12/28 00:35:55;;;;;;;11.40;4.57;;;6.80;99.90;;;;;;5022013;28;20056;-86
2022/12/28 00:38:21;;;;;;;14.77;4.60;;;5.50;99.90;;;;;;5009245;28;20068;-85
2022/12/28 00:40:47;;;;;;;11.07;4.40;;;6.70;99.90;;;;;;5040964;28;20041;-85
2022/12/28 00:43:12;;;;;;;13.73;4.47;;;6.00;99.90;;;;;;5007588;28;20045;-85
2022/12/28 00:45:38;;;;;;;12.15;4.80;;;6.10;99.90;;;;;;5054780;28;20068;-85
2022/12/28 00:48:04;;;;;;;12.70;5.10;;;5.50;99.90;;;;;;5008068;28;20029;-85
2022/12/28 00:50:30;;;;;;;12.07;4.22;;;5.50;99.90;;;;;;5007665;28;20571;-86
2022/12/28 00:52:56;;;;;;;12.38;4.28;;;5.50;99.90;;;;;;5008312;28;20029;-86
2022/12/28 00:55:22;;;;;;;13.07;4.75;;;6.70;99.90;;;;;;4991861;28;20090;-86
2022/12/28 00:57:47;;;;;;;12.25;4.68;;;5.50;99.90;;;;;;5037815;28;20094;-86
2022/12/28 01:00:14;;;;;;;10.80;4.72;;;6.20;99.90;;;;;;5025825;28;20124;-84
2022/12/28 01:02:40;;;;;;;12.13;4.63;;;5.50;99.90;;;;;;5040753;28;20041;-85
2022/12/28 01:05:06;;;;;;;13.75;5.10;;;6.20;99.90;;;;;;5040715;28;20040;-86
2022/12/28 01:07:32;;;;;;;11.40;5.13;;;5.50;99.90;;;;;;5023580;28;20037;-86
2022/12/28 01:09:57;;;;;;;13.52;5.47;;;7.10;99.90;;;;;;5041873;28;20045;-85
2022/12/28 01:12:23;;;;;;;14.85;5.05;;;5.70;99.90;;;;;;5009344;28;20048;-85
2022/12/28 01:14:49;;;;;;;12.45;5.25;;;6.50;99.90;;;;;;5025813;28;20088;-86
2022/12/28 01:17:14;;;;;;;13.45;5.47;;;6.90;99.90;;;;;;5036987;28;20041;-85
2022/12/28 01:19:40;;;;;;;12.77;5.45;;;6.30;99.90;;;;;;5041039;28;20083;-86
2022/12/28 01:22:07;;;;;;;14.05;5.22;;;5.80;99.90;;;;;;5026334;28;20409;-86
2022/12/28 01:24:32;;;;;;;11.88;5.30;;;5.60;99.90;;;;;;5029634;28;20659;-85
2022/12/28 01:26:58;;;;;;;11.30;5.22;;;5.60;99.90;;;;;;5027652;28;20274;-86
2022/12/28 01:29:24;;;;;;;13.23;5.05;;;6.30;99.90;;;;;;5044439;28;20048;-87
2022/12/28 01:31:49;;;;;;;13.80;5.38;;;6.30;99.90;;;;;;5022085;28;20037;-86
2022/12/28 01:34:15;;;;;;;13.05;4.70;;;5.70;99.90;;;;;;5027469;28;20498;-86
2022/12/28 01:36:40;;;;;;;13.65;5.20;;;6.60;99.90;;;;;;5028075;28;20061;-85
2022/12/28 01:39:06;;;;;;;13.35;4.90;;;5.60;99.90;;;;;;5011359;28;20075;-87
2022/12/28 01:41:36;;;;;;;13.75;4.45;;;5.60;99.90;;;;;;5044473;28;20151;-86
2022/12/28 01:44:02;;;;;;;13.43;4.85;;;6.00;99.90;;;;;;5029810;28;20510;-86
2022/12/28 01:46:48;;;;;;;12.02;4.78;;;7.10;99.90;;;;;;5027109;28;20069;-87
2022/12/28 01:49:35;;;;;;;10.00;4.50;;;5.60;99.90;;;;;;5060597;28;20033;-87
2022/12/28 01:52:15;;;;;;;13.07;4.97;;;5.70;99.90;;;;;;5044599;28;20045;-86
2022/12/28 01:55:01;;;;;;;13.35;5.28;;;5.60;99.90;;;;;;5028464;28;20047;-86
2022/12/28 01:57:32;;;;;;;10.95;4.90;;;5.70;99.90;;;;;;5042055;28;20124;-84
2022/12/28 02:00:19;;;;;;;14.07;5.13;;;6.50;99.90;;;;;;5022848;28;20045;-84
2022/12/28 02:02:55;;;;;;;13.73;4.88;;;5.70;99.90;;;;;;5042979;28;20051;-86
2022/12/28 02:05:24;;;;;;;12.60;4.95;;;6.10;99.90;;;;;;5044482;28;20052;-86
2022/12/28 02:08:23;;;;;;;13.50;5.03;;;6.80;99.90;;;;;;5026672;28;20618;-85
2022/12/28 02:10:50;;;;;;;12.60;5.50;;;5.70;99.90;;;;;;5028161;28;20044;-86
2022/12/28 02:13:17;;;;;;;10.75;4.97;;;6.50;99.90;;;;;;5046345;28;20124;-86
2022/12/28 02:15:45;;;;;;;13.27;5.25;;;5.80;99.90;;;;;;5028317;28;20049;-86
2022/12/28 02:18:13;;;;;;;13.88;5.10;;;6.20;99.90;;;;;;5059508;28;20115;-85
2022/12/28 02:21:08;;;;;;;10.63;4.78;;;5.70;99.90;;;;;;5042529;28;20044;-85
2022/12/28 02:24:00;;;;;;;13.40;5.43;;;5.70;99.90;;;;;;5043809;28;20044;-85
2022/12/28 02:26:49;;;;;;;13.25;5.25;;;6.30;99.90;;;;;;5043768;28;20079;-85
2022/12/28 02:29:21;;;;;;;13.52;5.50;;;5.70;99.90;;;;;;5041327;28;20041;-86
2022/12/28 02:32:11;;;;;;;14.43;6.10;;;6.30;99.90;;;;;;5023524;28;20049;-85
2022/12/28 02:34:56;;;;;;;15.60;5.68;;;6.70;99.90;;;;;;5025894;28;20045;-85
2022/12/28 02:37:48;;;;;;;13.07;5.38;;;5.70;99.90;;;;;;5057331;28;20037;-85
2022/12/28 02:40:23;;;;;;;12.43;5.15;;;5.70;99.90;;;;;;5022079;28;20106;-85
2022/12/28 02:42:52;;;;;;;13.02;5.80;;;5.70;99.90;;;;;;5043033;28;20061;-85
2022/12/28 02:51:37;;;;;;;12.23;5.70;;;5.90;99.90;;;;;;5037039;28;20044;-86
2022/12/28 02:56:05;;;;;;;11.05;5.20;;;5.70;99.90;;;;;;5038549;28;20127;-85
2022/12/28 02:57:27;;;;;;;11.55;5.18;;;5.70;99.90;;;;;;5043753;28;20041;-85
2022/12/28 02:59:58;;;;;;;10.57;4.70;;;5.70;99.90;;;;;;5005471;28;20106;-86
2022/12/28 03:02:33;;;;;;;13.65;5.22;;;5.70;99.90;;;;;;5024405;28;20425;-86
2022/12/28 03:05:09;;;;;;;13.25;4.70;;;5.80;99.90;;;;;;5042945;28;20470;-85
2022/12/28 03:10:59;;;;;;;10.65;5.15;;;5.80;99.90;;;;;;5040430;28;20041;-85
2022/12/28 03:13:43;;;;;;;10.02;4.85;;;7.20;99.90;;;;;;5040176;28;20060;-85
2022/12/28 03:16:25;;;;;;;10.63;4.80;;;5.80;99.90;;;;;;5026316;28;20076;-84
2022/12/28 03:33:01;;;;;;;11.57;4.82;;;5.90;99.90;;;;;;5038308;28;20788;-85
2022/12/28 03:35:39;;;;;;;10.43;4.95;;;5.90;99.90;;;;;;5009298;28;20041;-85
2022/12/28 03:38:09;;;;;;;10.00;5.07;;;6.00;99.90;;;;;;5036169;28;20044;-85
2022/12/28 03:40:38;;;;;;;13.80;5.65;;;6.00;99.90;;;;;;5020207;28;20045;-85
2022/12/28 03:46:05;;;;;;;10.75;5.18;;;7.10;99.90;;;;;;5035496;28;20094;-85
2022/12/28 03:48:34;;;;;;;9.65;4.90;;;6.00;99.90;;;;;;5036718;28;20029;-86
2022/12/28 03:51:00;;;;;;;12.07;5.53;;;7.00;99.90;;;;;;5042295;28;20092;-85
2022/12/28 03:53:36;;;;;;;11.18;5.53;;;6.10;99.90;;;;;;5021754;28;20388;-85
2022/12/28 03:56:14;;;;;;;13.25;5.50;;;6.70;99.90;;;;;;5022077;28;20117;-85
2022/12/28 03:58:40;;;;;;;11.18;5.63;;;6.10;99.90;;;;;;5039537;28;20128;-85
2022/12/28 04:01:06;;;;;;;11.10;5.85;;;6.10;99.90;;;;;;5056240;28;20416;-86
2022/12/28 04:03:32;;;;;;;11.00;5.18;;;7.00;99.90;;;;;;5021049;28;20040;-86
2022/12/28 04:05:58;;;;;;;11.43;5.50;;;7.60;99.90;;;;;;5020957;28;20044;-85
2022/12/28 04:08:24;;;;;;;10.88;5.70;;;7.00;99.90;;;;;;5023681;28;20113;-85
2022/12/28 04:10:50;;;;;;;12.35;5.60;;;7.60;99.90;;;;;;5004712;28;20136;-85
2022/12/28 04:13:15;;;;;;;9.70;5.20;;;7.50;99.90;;;;;;5024101;28;20037;-85
2022/12/28 04:15:41;;;;;;;11.05;5.50;;;6.80;99.90;;;;;;5037930;28;20144;-87
2022/12/28 04:18:07;;;;;;;9.77;4.70;;;;;;;;;;5009047;28;20521;-85
2022/12/28 04:20:33;;;;;;;9.77;4.88;;;6.40;99.90;;;;;;5022885;28;20040;-85
2022/12/28 04:22:58;;;;;;;11.18;5.20;;;6.40;99.90;;;;;;5001046;28;20525;-86
2022/12/28 04:25:24;;;;;;;10.23;5.10;;;7.30;99.90;;;;;;5024552;28;20047;-86
2022/12/28 04:27:50;;;;;;;9.82;4.95;;;6.50;99.90;;;;;;5043298;28;20041;-86
2022/12/28 04:30:16;;;;;;;9.88;4.90;;;6.50;99.90;;;;;;5026417;28;20057;-85
2022/12/28 04:32:41;;;;;;;9.50;4.80;;;6.50;99.90;;;;;;5009795;28;20413;-87
2022/12/28 04:35:07;;;;;;;9.48;4.78;;;6.50;99.90;;;;;;5026545;28;20041;-85
2022/12/28 04:37:36;;;;;;;11.07;5.00;;;6.50;99.90;;;;;;5024555;28;20543;-86
2022/12/28 04:40:02;;;;;;;9.98;5.22;;;7.40;99.90;;;;;;5010271;28;20041;-86
2022/12/28 04:42:28;;;;;;;10.20;4.70;;;6.90;99.90;;;;;;5026655;28;20049;-86
2022/12/28 04:44:53;;;;;;;10.20;4.82;;;6.60;99.90;;;;;;5026950;28;20048;-87
2022/12/28 04:47:19;;;;;;;9.75;4.55;;;6.20;99.90;;;;;;5025453;28;20041;-86
2022/12/28 04:49:45;;;;;;;10.63;4.88;;;6.60;99.90;;;;;;5025984;28;20033;-86
2022/12/28 04:52:10;;;;;;;9.30;4.65;;;6.60;99.90;;;;;;5009165;28;20171;-87
2022/12/28 04:54:36;;;;;;;8.07;3.95;;;7.50;99.90;;;;;;5008758;28;20072;-86
2022/12/28 04:57:02;;;;;;;8.43;4.22;;;6.70;99.90;;;;;;5007149;28;21111;-86
2022/12/28 04:59:27;;;;;;;9.68;4.50;;;6.70;99.90;;;;;;5009564;28;20036;-85
2022/12/28 05:01:53;;;;;;;9.60;4.65;;;6.70;99.90;;;;;;5007414;28;20357;-86
2022/12/28 05:04:18;;;;;;;9.65;4.75;;;7.40;99.90;;;;;;5009527;28;20032;-87
2022/12/28 05:06:44;;;;;;;8.80;4.20;;;7.30;99.90;;;;;;5009253;28;20152;-85
2022/12/28 05:09:10;;;;;;;9.43;4.80;;;7.80;99.90;;;;;;5037690;28;20041;-86
2022/12/28 05:11:36;;;;;;;8.93;4.63;;;6.90;99.90;;;;;;5023119;28;20044;-85
2022/12/28 05:14:01;;;;;;;9.13;4.47;;;6.70;99.90;;;;;;5009627;28;20493;-86
2022/12/28 05:16:28;;;;;;;10.55;4.63;;;6.80;99.90;;;;;;5025288;28;20064;-86
2022/12/28 05:18:55;;;;;;;9.07;4.72;;;6.80;99.90;;;;;;5021961;28;20040;-86
2022/12/28 05:21:26;;;;;;;10.70;5.10;;;6.80;99.90;;;;;;5024496;28;20043;-86
2022/12/28 05:23:52;;;;;;;9.60;5.10;;;7.20;99.90;;;;;;5040196;28;20039;-86
2022/12/28 05:26:24;;;;;;;11.02;5.28;;;7.80;99.90;;;;;;5028769;28;20032;-85
2022/12/28 05:28:50;;;;;;;9.98;4.97;;;7.30;99.90;;;;;;5023230;28;20052;-86
2022/12/28 05:31:19;;;;;;;9.73;5.20;;;7.40;99.90;;;;;;5023834;28;20119;-85
2022/12/28 05:33:46;;;;;;;9.95;5.28;;;6.90;99.90;;;;;;5040607;28;20069;-86
2022/12/28 05:36:20;;;;;;;11.40;5.68;;;7.40;99.90;;;;;;5007197;28;20095;-85
2022/12/28 05:38:46;;;;;;;9.60;4.95;;;7.40;99.90;;;;;;5042010;28;20409;-86
2022/12/28 05:41:21;;;;;;;10.30;5.45;;;7.00;99.90;;;;;;5024875;28;20094;-86
2022/12/28 05:43:47;;;;;;;10.30;6.00;;;7.00;99.90;;;;;;5020953;28;20147;-85
2022/12/28 05:46:15;;;;;;;11.05;6.53;;;8.10;99.90;;;;;;5040999;28;20124;-87
2022/12/28 05:48:42;;;;;;;11.07;6.55;;;8.00;99.90;;;;;;5041285;28;20033;-85
2022/12/28 05:51:10;;;;;;;11.80;6.75;;;8.10;99.90;;;;;;5026492;28;20063;-87
2022/12/28 05:53:37;;;;;;;10.65;6.78;;;7.60;99.90;;;;;;5039624;28;20049;-86
2022/12/28 05:56:10;;;;;;;12.63;7.50;;;7.10;99.90;;;;;;5008835;28;20120;-87
2022/12/28 05:58:35;;;;;;;12.73;7.68;;;7.40;99.90;;;;;;5040047;28;20410;-86
2022/12/28 06:01:11;;;;;;;11.82;6.90;;;7.20;99.90;;;;;;5042128;28;20041;-87
2022/12/28 06:03:38;;;;;;;11.52;7.18;;;7.20;99.90;;;;;;5041748;28;20041;-85
2022/12/28 06:06:15;;;;;;;13.07;8.05;;;7.30;99.90;;;;;;5058656;28;20032;-86
2022/12/28 06:08:43;;;;;;;12.88;7.50;;;7.30;99.90;;;;;;5043745;28;20047;-86
2022/12/28 06:11:12;;;;;;;13.75;8.93;;;7.30;99.90;;;;;;5028716;28;20049;-85
2022/12/28 06:13:38;;;;;;;15.90;8.82;;;7.30;99.90;;;;;;5029716;28;20041;-86
2022/12/28 06:16:09;;;;;;;14.02;8.90;;;7.40;99.90;;;;;;5043663;28;20072;-85
2022/12/28 06:18:35;;;;;;;13.65;9.35;;;7.40;99.90;;;;;;5052603;28;20148;-85
2022/12/28 06:21:16;;;;;;;14.55;9.48;;;7.40;99.90;;;;;;5047943;28;20506;-86
2022/12/28 06:23:42;;;;;;;14.57;9.20;;;7.50;99.90;;;;;;5044281;28;20048;-85
2022/12/28 06:26:11;;;;;;;14.38;9.45;;;7.50;99.90;;;;;;5043008;28;20048;-85
2022/12/28 06:28:37;;;;;;;15.55;9.68;;;7.50;99.90;;;;;;5043349;28;20033;-86
2022/12/28 06:31:10;;;;;;;14.05;9.85;;;7.50;99.90;;;;;;5027068;28;20044;-87
2022/12/28 06:33:35;;;;;;;15.93;9.25;;;7.50;99.90;;;;;;5040650;28;20064;-85
2022/12/28 06:36:02;;;;;;;14.80;9.18;;;8.20;99.90;;;;;;5037342;28;20069;-85
2022/12/28 06:38:31;;;;;;;14.38;8.30;;;7.50;99.90;;;;;;5011522;28;20048;-85
2022/12/28 06:41:04;;;;;;;13.88;8.25;;;7.50;99.90;;;;;;5022699;28;20041;-86
2022/12/28 06:43:35;;;;;;;11.88;7.53;;;7.60;99.90;;;;;;5044559;28;20051;-87
2022/12/28 06:46:01;;;;;;;11.48;7.30;;;7.60;99.90;;;;;;5027927;28;20033;-85
2022/12/28 06:48:29;;;;;;;13.50;7.25;;;8.30;99.90;;;;;;5010295;28;20041;-87
2022/12/28 06:51:07;;;;;;;13.73;8.00;;;7.60;99.90;;;;;;5040504;28;20063;-85
2022/12/28 06:53:36;;;;;;;11.48;7.07;;;7.70;99.90;;;;;;5028440;28;20044;-85
2022/12/28 06:56:11;;;;;;;10.90;6.60;;;8.50;99.90;;;;;;5011270;28;20094;-86
2022/12/28 06:58:36;;;;;;;10.48;6.55;;;7.70;99.90;;;;;;5043540;28;20303;-85
2022/12/28 07:01:11;;;;;;;11.57;6.82;;;7.70;99.90;;;;;;5041142;28;20271;-85
2022/12/28 07:03:37;;;;;;;10.52;6.40;;;7.70;99.90;;;;;;5026797;28;20534;-86
2022/12/28 07:06:04;;;;;;;11.60;6.50;;;7.70;99.90;;;;;;5039498;28;20064;-87
2022/12/28 07:08:30;;;;;;;12.27;7.03;;;7.70;99.90;;;;;;5037179;28;20041;-86
2022/12/28 07:11:02;;;;;;;12.68;6.93;;;8.60;99.90;;;;;;5012618;28;20037;-85
2022/12/28 07:13:27;;;;;;;12.20;6.95;;;7.70;99.90;;;;;;5025918;28;20698;-84
2022/12/28 07:15:53;;;;;;;11.30;7.13;;;7.70;99.90;;;;;;5009638;28;20054;-86
2022/12/28 07:18:19;;;;;;;13.13;6.85;;;7.90;99.90;;;;;;5040020;28;20074;-86
2022/12/28 07:20:45;;;;;;;11.75;6.97;;;7.80;99.90;;;;;;5046854;28;20041;-86
2022/12/28 07:23:10;;;;;;;12.55;7.53;;;7.80;99.90;;;;;;5039608;28;20478;-86
2022/12/28 07:25:36;;;;;;;11.02;6.88;;;7.80;99.90;;;;;;5042763;28;20045;-86
2022/12/28 07:28:02;;;;;;;10.70;6.28;;;8.20;99.90;;;;;;5013974;28;20402;-85
2022/12/28 07:30:27;;;;;;;12.45;7.20;;;7.80;99.90;;;;;;5028884;28;20033;-85
2022/12/28 07:32:53;;;;;;;12.13;6.80;;;8.10;99.90;;;;;;5024048;28;20045;-86
2022/12/28 07:35:19;;;;;;;12.00;7.22;;;7.80;99.90;;;;;;5004749;28;20061;-85
2022/12/28 07:37:45;;;;;;;12.57;7.00;;;8.30;99.90;;;;;;5027600;28;20033;-85
2022/12/28 07:40:11;;;;;;;14.27;7.93;;;8.20;99.90;;;;;;5025787;28;20124;-86
2022/12/28 07:42:36;;;;;;;13.50;8.10;;;7.90;99.90;;;;;;4995197;28;20108;-86
2022/12/28 07:45:02;;;;;;;13.13;8.40;;;7.90;99.90;;;;;;5027493;28;20028;-86
2022/12/28 07:47:28;;;;;;;14.68;7.82;;;8.00;99.90;;;;;;5030154;28;20157;-86
2022/12/28 07:49:54;;;;;;;12.77;7.97;;;8.00;99.90;;;;;;5054476;28;20095;-85
2022/12/28 07:52:19;;;;;;;15.75;8.25;;;8.00;99.90;;;;;;5032259;28;20051;-85
2022/12/28 07:54:45;;;;;;;15.43;8.50;;;8.10;99.90;;;;;;5013712;28;20094;-85
2022/12/28 07:57:11;;;;;;;14.70;8.65;;;8.20;99.90;;;;;;5013566;28;20397;-86
2022/12/28 07:59:36;;;;;;;15.05;8.60;;;8.10;99.90;;;;;;5015297;28;20112;-86
2022/12/28 08:02:02;;;;;;;14.93;8.60;;;8.10;99.90;;;;;;5028643;28;20044;-86
2022/12/28 08:04:28;;;;;;;19.73;9.63;;;8.10;99.90;;;;;;5027231;28;20045;-88
2022/12/28 08:06:56;;;;;;;15.15;9.25;;;8.10;99.90;;;;;;5045359;28;20044;-86
2022/12/28 08:09:21;;;;;;;15.55;8.70;;;8.10;99.90;;;;;;5019377;28;20056;-87
2022/12/28 08:11:48;;;;;;;18.00;9.30;;;8.40;99.90;;;;;;5063656;28;20064;-87
2022/12/28 08:14:14;;;;;;;14.70;9.00;;;8.20;99.90;;;;;;5035684;28;20037;-88
2022/12/28 08:16:42;;;;;;;13.73;9.07;;;8.20;99.90;;;;;;5018169;28;20052;-88
2022/12/28 08:19:09;;;;;;;16.85;10.30;;;8.20;99.90;;;;;;5054613;28;20102;-90
2022/12/28 08:21:40;;;;;;;16.52;10.32;;;8.20;99.90;;;;;;5052670;28;20041;-88
2022/12/28 08:24:08;;;;;;;18.40;9.90;;;8.30;99.90;;;;;;5024881;28;20072;-87
2022/12/28 08:26:37;;;;;;;14.85;9.75;;;8.30;99.90;;;;;;5033119;28;20374;-87
2022/12/28 08:29:09;;;;;;;14.70;9.55;;;8.30;99.90;;;;;;5034399;28;20041;-88
2022/12/28 08:31:37;;;;;;;14.82;10.07;;;8.30;99.90;;;;;;5038030;28;20138;-88
2022/12/28 08:34:04;;;;;;;14.45;9.45;;;8.30;99.90;;;;;;5031264;28;20522;-87
2022/12/28 08:36:31;;;;;;;15.32;10.60;;;8.30;99.90;;;;;;5047713;28;20030;-88
2022/12/28 08:38:57;;;;;;;13.57;9.50;;;8.30;99.90;;;;;;5002176;28;20219;-88
2022/12/28 08:41:24;;;;;;;14.65;9.65;;;8.30;99.90;;;;;;5009508;28;20089;-87
2022/12/28 08:43:51;;;;;;;15.07;10.18;;;8.30;99.90;;;;;;5039569;28;20041;-88
2022/12/28 08:46:20;;;;;;;15.38;9.80;;;8.30;99.90;;;;;;5026578;28;20037;-87
2022/12/28 08:48:47;;;;;;;15.20;9.45;;;8.30;99.90;;;;;;5025180;28;20049;-88
2022/12/28 08:51:16;;;;;;;14.85;9.27;;;8.40;99.90;;;;;;5039874;28;20454;-87
2022/12/28 08:53:42;;;;;;;16.02;9.43;;;8.30;99.90;;;;;;5036389;28;20048;-88
2022/12/28 08:56:14;;;;;;;13.25;8.43;;;8.30;99.90;;;;;;4991791;28;20454;-87
2022/12/28 08:58:41;;;;;;;14.20;9.07;;;8.30;99.90;;;;;;5041014;28;20045;-89
2022/12/28 09:01:28;;;;;;;12.85;8.00;;;8.40;99.90;;;;;;5020225;28;20041;-89
2022/12/28 09:03:56;;;;;;;11.77;7.32;;;8.40;99.90;;;;;;5053048;28;20028;-88
2022/12/28 09:06:30;;;;;;;12.10;7.63;;;9.00;99.90;;;;;;5049104;28;20700;-87
2022/12/28 09:08:57;;;;;;;12.18;7.10;;;8.40;99.90;;;;;;5038925;28;20033;-88
2022/12/28 09:11:23;;;;;;;11.32;6.57;;;9.10;99.90;;;;;;5039914;28;20044;-88
2022/12/28 09:13:49;;;;;;;10.55;5.65;;;8.40;99.90;;;;;;5037125;28;20414;-87
2022/12/28 09:16:17;;;;;;;10.05;5.85;;;8.40;99.90;;;;;;5023391;28;20056;-89
2022/12/28 09:18:44;;;;;;;10.35;5.60;;;8.40;99.90;;;;;;5038039;28;20048;-88
2022/12/28 09:21:16;;;;;;;9.82;5.53;;;8.40;99.90;;;;;;5025774;28;20069;-89
2022/12/28 09:23:43;;;;;;;9.82;5.10;;;8.60;99.90;;;;;;5050607;28;20082;-90
2022/12/28 09:26:12;;;;;;;9.45;4.63;;;9.20;99.90;;;;;;5007509;28;20079;-90
2022/12/28 09:28:38;;;;;;;9.60;4.60;;;8.40;99.90;;;;;;5025989;28;20037;-92
2022/12/28 09:31:06;;;;;;;10.13;5.47;;;8.40;99.90;;;;;;5009721;28;20494;-89
2022/12/28 09:36:18;;;;;;;9.13;4.80;;;8.40;99.90;;;;;;5028980;28;20045;-86
2022/12/28 09:38:44;;;;;;;9.57;4.93;;;8.40;99.90;;;;;;5027113;28;20044;-87
2022/12/28 09:41:57;;;;;;;9.80;4.75;;;9.00;99.90;;;;;;5028157;28;20111;-90
2022/12/28 09:44:54;;;;;;;11.02;4.55;;;8.50;99.90;;;;;;4964258;28;20388;-88
2022/12/28 09:47:35;;;;;;;9.00;4.63;;;8.50;99.90;;;;;;5044770;28;20040;-89
2022/12/28 09:50:22;;;;;;;9.43;4.55;;;8.50;99.90;;;;;;5043817;28;20147;-87
2022/12/28 09:53:03;;;;;;;10.02;4.68;;;8.50;99.90;;;;;;5028815;28;20065;-88
2022/12/28 09:55:34;;;;;;;9.00;4.30;;;8.50;99.90;;;;;;5034408;28;20040;-87
2022/12/28 09:58:02;;;;;;;8.75;4.43;;;8.60;99.90;;;;;;5032800;28;20044;-87
2022/12/28 10:00:42;;;;;;;9.32;4.47;;;8.50;99.90;;;;;;5040557;28;20032;-87
2022/12/28 10:03:22;;;;;;;9.70;4.88;;;8.50;99.90;;;;;;5027728;28;20043;-88
2022/12/28 10:05:50;;;;;;;9.75;4.82;;;8.50;99.90;;;;;;5039350;28;20168;-87
2022/12/28 10:08:20;;;;;;;9.85;4.72;;;8.50;99.90;;;;;;5018618;28;20041;-88
2022/12/28 10:10:46;;;;;;;10.50;4.95;;;8.50;99.90;;;;;;5027196;28;20506;-88
2022/12/28 10:13:23;;;;;;;9.60;4.85;;;8.50;99.90;;;;;;5028909;28;20394;-88
2022/12/28 10:15:50;;;;;;;9.88;4.60;;;8.50;99.90;;;;;;5046804;28;20116;-87
2022/12/28 10:18:22;;;;;;;9.60;4.38;;;8.60;99.90;;;;;;5045324;28;20037;-87
2022/12/28 10:20:48;;;;;;;9.40;4.47;;;8.60;99.90;;;;;;5043723;28;20040;-88
2022/12/28 10:23:19;;;;;;;8.00;3.80;;;8.60;99.90;;;;;;5045496;28;20042;-88
2022/12/28 10:25:46;;;;;;;8.63;4.00;;;8.60;99.90;;;;;;5026300;28;20048;-86
2022/12/28 10:28:13;;;;;;;8.27;3.70;;;8.60;99.90;;;;;;5018025;28;20397;-87
2022/12/28 10:31:07;;;;;;;8.20;3.67;;;8.80;99.90;;;;;;5035577;28;20029;-87
2022/12/28 10:33:41;;;;;;;7.95;3.55;;;8.60;99.90;;;;;;5039480;28;20440;-87
2022/12/28 10:36:13;;;;;;;9.07;3.58;;;8.60;99.90;;;;;;5025673;28;20151;-88
2022/12/28 10:38:42;;;;;;;8.63;3.72;;;8.60;99.90;;;;;;5042740;28;20107;-88
2022/12/28 10:41:14;;;;;;;8.38;3.85;;;8.60;99.90;;;;;;5044065;28;20035;-89
2022/12/28 10:43:43;;;;;;;8.75;3.90;;;8.70;99.90;;;;;;5025364;28;20884;-90
2022/12/28 10:46:22;;;;;;;10.52;4.80;;;8.70;99.90;;;;;;5042230;28;20080;-88
2022/12/28 10:48:57;;;;;;;8.48;4.05;;;8.70;99.90;;;;;;5007691;28;20040;-86
2022/12/28 10:51:25;;;;;;;9.23;4.72;;;8.70;99.90;;;;;;5043365;28;20509;-87
2022/12/28 10:53:57;;;;;;;9.15;4.63;;;8.70;99.90;;;;;;5007692;28;20039;-87
2022/12/28 10:56:31;;;;;;;9.18;4.75;;;8.70;99.90;;;;;;5023750;28;20029;-88
2022/12/28 10:59:09;;;;;;;10.73;5.47;;;8.70;99.90;;;;;;5040661;28;20115;-88
2022/12/28 11:01:35;;;;;;;9.77;5.30;;;8.70;99.90;;;;;;5057668;28;20041;-87
2022/12/28 11:04:05;;;;;;;11.88;5.65;;;8.70;99.90;;;;;;5025558;28;20044;-88
2022/12/28 11:06:49;;;;;;;9.10;4.70;;;8.70;99.90;;;;;;5043135;28;20040;-89
2022/12/28 11:09:19;;;;;;;8.63;4.30;;;8.70;99.90;;;;;;5020593;28;20167;-90
2022/12/28 11:11:46;;;;;;;8.98;4.43;;;8.70;99.90;;;;;;5057405;28;20116;-90
2022/12/28 11:14:36;;;;;;;11.05;4.80;;;8.70;99.90;;;;;;5030334;28;20044;-90
2022/12/28 11:17:27;;;;;;;9.23;4.25;;;8.70;99.90;;;;;;5056911;28;20513;-89
2022/12/28 11:20:00;;;;;;;9.27;4.07;;;8.70;99.90;;;;;;5057552;28;20505;-89
2022/12/28 11:22:28;;;;;;;8.27;3.67;;;8.70;99.90;;;;;;5028394;28;20037;-89
2022/12/28 11:24:55;;;;;;;9.00;4.13;;;8.70;99.90;;;;;;5042814;28;21322;-86
2022/12/28 11:27:23;;;;;;;9.52;3.67;;;8.80;99.90;;;;;;5045977;28;20179;-89
2022/12/28 11:29:50;;;;;;;8.23;3.72;;;8.80;99.90;;;;;;5036337;28;20047;-88
2022/12/28 11:32:38;;;;;;;8.85;3.65;;;8.80;99.90;;;;;;5042165;28;20512;-89
2022/12/28 11:35:05;;;;;;;8.23;3.40;;;8.80;99.90;;;;;;5022794;28;20071;-92
2022/12/28 11:37:31;;;;;;;10.18;3.67;;;8.80;99.90;;;;;;5029695;28;20491;-88
2022/12/28 11:39:57;;;;;;;7.10;3.20;;;8.80;99.90;;;;;;5026777;28;20060;-91
2022/12/28 11:42:35;;;;;;;8.55;3.45;;;8.80;99.90;;;;;;5011615;28;20040;-88
2022/12/28 11:45:35;;;;;;;8.43;3.42;;;8.90;99.90;;;;;;5055921;28;20452;-88
2022/12/28 11:48:39;;;;;;;7.95;3.28;;;8.80;99.90;;;;;;5039889;28;20072;-87
2022/12/28 11:51:13;;;;;;;7.88;3.20;;;8.80;99.90;;;;;;5022800;28;20057;-88
2022/12/28 11:53:45;;;;;;;8.25;3.10;;;8.80;99.90;;;;;;5041355;28;20075;-89
2022/12/28 11:56:18;;;;;;;7.68;3.08;;;8.80;99.90;;;;;;5025708;28;20056;-88
2022/12/28 11:58:58;;;;;;;7.22;3.08;;;8.80;99.90;;;;;;5038819;28;20041;-92
2022/12/28 12:01:27;;;;;;;7.93;3.15;;;8.80;99.90;;;;;;5027224;28;20037;-87
2022/12/28 12:03:55;;;;;;;7.40;3.10;;;8.80;99.90;;;;;;5046791;28;20080;-89
2022/12/28 12:06:44;;;;;;;7.70;3.60;;;8.80;99.90;;;;;;5035709;28;20052;-88
2022/12/28 12:09:37;;;;;;;8.25;3.47;;;8.80;99.90;;;;;;5028352;28;20047;-87
2022/12/28 12:12:15;;;;;;;7.75;3.20;;;8.80;99.90;;;;;;5037644;28;20415;-87
2022/12/28 12:15:02;;;;;;;8.40;3.55;;;9.40;99.90;;;;;;5042403;28;20079;-87
2022/12/28 12:17:48;;;;;;;8.23;3.47;;;8.80;99.90;;;;;;5045380;28;20049;-87
2022/12/28 12:20:27;;;;;;;7.80;3.47;;;8.80;99.90;;;;;;5036125;28;20037;-88
2022/12/28 12:23:26;;;;;;;7.25;3.20;;;8.80;99.90;;;;;;5023068;28;20075;-88
2022/12/28 12:25:56;;;;;;;7.45;3.25;;;8.80;99.90;;;;;;5027940;28;20049;-86
2022/12/28 12:28:38;;;;;;;8.35;3.38;;;8.80;99.90;;;;;;5047228;28;20040;-89
2022/12/28 12:31:10;;;;;;;7.78;3.10;;;8.80;99.90;;;;;;5054858;28;20517;-86
2022/12/28 12:33:41;;;;;;;7.60;2.95;;;8.80;99.90;;;;;;5025991;28;20203;-88
2022/12/28 12:36:15;;;;;;;8.32;3.10;;;8.80;99.90;;;;;;5039035;28;20078;-87
2022/12/28 12:39:09;;;;;;;7.38;2.95;;;8.80;99.90;;;;;;5025380;28;20033;-88
2022/12/28 12:41:41;;;;;;;6.90;2.80;;;8.80;99.90;;;;;;5041785;28;20032;-88
2022/12/28 12:44:34;;;;;;;6.30;2.70;;;8.80;99.90;;;;;;5025305;28;20134;-88
2022/12/28 12:47:05;;;;;;;6.15;2.30;;;8.80;99.90;;;;;;5027288;28;20041;-87
2022/12/28 12:49:37;;;;;;;5.75;2.30;;;9.10;99.90;;;;;;5026495;28;20130;-88
2022/12/28 12:52:11;;;;;;;5.93;2.50;;;8.80;99.90;;;;;;5025177;28;20509;-90
2022/12/28 12:55:08;;;;;;;6.00;2.38;;;8.80;99.90;;;;;;5041351;28;20132;-90
2022/12/28 12:57:44;;;;;;;6.78;2.40;;;;;;;;;;5024854;28;20425;-88
2022/12/28 13:00:18;;;;;;;6.15;2.42;;;8.80;99.90;;;;;;5036440;28;20033;-90
2022/12/28 13:03:07;;;;;;;6.45;2.40;;;8.80;99.90;;;;;;5020842;28;20037;-88
2022/12/28 13:05:37;;;;;;;6.30;2.35;;;8.80;99.90;;;;;;5027595;28;20048;-88
2022/12/28 13:08:04;;;;;;;6.93;2.63;;;8.80;99.90;;;;;;5030729;28;20528;-88
2022/12/28 13:10:33;;;;;;;7.18;2.70;;;8.80;99.90;;;;;;5028469;28;20048;-89
2022/12/28 13:13:03;;;;;;;6.90;2.50;;;8.80;99.90;;;;;;5036960;28;20124;-88
2022/12/28 13:15:30;;;;;;;6.70;2.70;;;8.80;99.90;;;;;;5034455;28;20612;-88
2022/12/28 13:18:04;;;;;;;6.53;2.60;;;8.80;99.90;;;;;;5022601;28;20320;-88
2022/12/28 13:20:31;;;;;;;7.15;2.72;;;8.80;99.90;;;;;;5041160;28;20044;-88
2022/12/28 13:22:57;;;;;;;6.47;2.70;;;8.80;99.90;;;;;;5028677;28;20063;-87
2022/12/28 13:25:31;;;;;;;8.38;3.00;;;8.80;99.90;;;;;;5055577;28;20045;-88
2022/12/28 13:28:00;;;;;;;6.22;2.50;;;8.80;99.90;;;;;;5049676;28;20048;-88
2022/12/28 13:30:27;;;;;;;6.82;2.88;;;8.80;99.90;;;;;;5038817;28;20357;-87
2022/12/28 13:32:56;;;;;;;7.78;3.15;;;8.80;99.90;;;;;;5038770;28;20041;-88
2022/12/28 13:35:31;;;;;;;7.80;2.83;;;8.80;99.90;;;;;;5027960;28;20042;-88
2022/12/28 13:38:07;;;;;;;7.10;2.92;;;8.80;99.90;;;;;;5024774;28;20049;-88
2022/12/28 13:40:34;;;;;;;8.35;3.30;;;8.80;99.90;;;;;;5055560;28;20379;-88